Pagrindinis puslapis
METAR-TAF:

METAR-TAF

Oro uostai :

Utti, Suomija

platuma: 60-54N, ilguma: 026-56E, Aukštis: 100 m

Dabartinis oras

Ataskaita buvo paskelbta 44 minutes, ne 04:20 UTC
Vėjas 6 kt iš Pietų
Temperatūra 2°C
Drėgmė 87%
Slėgis 1022 hPa
Matomumas 10 km arba daugiau
nėra debesų žemiau 1500 m ir nėra kamuolinių lietaus debesų

METAR: EFUT 070420Z 18006KT CAVOK 02/M00 Q1022

Laikas: 08:04 (05:04 UTC)

Prognozė

Ataskaita buvo paskelbta 2 valandos ir 37 minutes, ne 02:27 UTC
Prognozė galioja nuo 07 metu 03 UTC su 07 metu 12 UTC
Vėjas 6 kt iš Pietryčių
Matomumas 10 km arba daugiau
nėra debesų žemiau 1500 m ir nėra kamuolinių lietaus debesų
Tapsmas
nuo 07 metu 07 UTC su 07 metu 09 UTC
Vėjas 11 kt iš Pietų/Pietvakarių

TAF: EFUT 070227Z 0703/0712 14006KT CAVOK BECMG 0707/0709 20011KT

Orai ataskaitas ir orų prognozės (METAR, TAF).

turimą stotys yra geltonos ir raudonos taškus žemėlapyje.

Perkelti pele per norėdami pamatyti stoties vardą.

Tada spustelėkite, norėdami matyti oro stebėjimo ir prognozės.

Norėdami pakeisti žemėlapį: spustelėkite ant žalios mygtukų su juodo kryžiaus žemyn,; žalią mygtuką su brūkšneliu, jei norite nutolinti; arba žalių rodyklių gretimoms žemėlapius.


METAR-TAF: